CheckWX is a tool to help pilots better visualize weather data.  It is not intended as a substitute for an official pre-flight weather briefing.

01:16:56 UTC

KJAX METAR
Jacksonville International Airport
Jacksonville, Florida, USA
Current

21 mins ago

KJAX 240056Z 08004KT 10SM FEW250 14/09 A3024 RMK AO2 SLP240 T01390094 $
Observed
Mar-24 @ 00:56 UTC
Wind
  • 080° at 4 KTS
Visibility
10 SM
Flight Rules
VFR
Cloud Levels
  • Few at 25,000' AGL
Temperature
14°C / 57°F
Dewpoint
C / 48°F
Humidity
72%
Altimeter
30.24" Hg
Pressure
1024 hPa
Previous

1 hour ago

KJAX 232356Z 07007KT 10SM SCT250 15/08 A3022 RMK AO2 SLP234 T01500083 10228 20150 51009 $
Observed
Mar-23 @ 23:56 UTC
Wind
  • 070° at 7 KTS
Visibility
10 SM
Flight Rules
VFR
Cloud Levels
  • Scattered at 25,000' AGL
Temperature
15°C / 59°F
Dewpoint
C / 46°F
Humidity
63%
Altimeter
30.22" Hg
Pressure
1023.4 hPa
Previous

2 hours ago

KJAX 232256Z 08009KT 10SM FEW250 18/01 A3022 RMK AO2 SLP232 T01830006 $
Observed
Mar-23 @ 22:56 UTC
Wind
  • 080° at 9 KTS
Visibility
10 SM
Flight Rules
VFR
Cloud Levels
  • Few at 25,000' AGL
Temperature
18°C / 64°F
Dewpoint
C / 34°F
Humidity
32%
Altimeter
30.22" Hg
Pressure
1023.2 hPa